sensor_id;sensor_type;location;lat;lon;timestamp;pressure;altitude;pressure_sealevel;temperature
19061;BMP280;9663;48.996;8.334;2022-12-20T00:01:24;100843.69;;;8.67
19061;BMP280;9663;48.996;8.334;2022-12-20T00:03:53;100828.47;;;8.64
19061;BMP280;9663;48.996;8.334;2022-12-20T00:06:20;100831.00;;;8.64
19061;BMP280;9663;48.996;8.334;2022-12-20T00:08:51;100820.09;;;8.65
19061;BMP280;9663;48.996;8.334;2022-12-20T00:11:17;100803.22;;;8.66
19061;BMP280;9663;48.996;8.334;2022-12-20T00:13:45;100817.56;;;8.67
19061;BMP280;9663;48.996;8.334;2022-12-20T00:16:13;100804.94;;;8.68
19061;BMP280;9663;48.996;8.334;2022-12-20T00:18:41;100799.91;;;8.70
19061;BMP280;9663;48.996;8.334;2022-12-20T00:21:11;100803.31;;;8.72
19061;BMP280;9663;48.996;8.334;2022-12-20T00:23:37;100796.56;;;8.74
19061;BMP280;9663;48.996;8.334;2022-12-20T00:26:18;100795.72;;;8.72
19061;BMP280;9663;48.996;8.334;2022-12-20T00:28:45;100801.63;;;8.74
19061;BMP280;9663;48.996;8.334;2022-12-20T00:31:13;100791.56;;;8.77
19061;BMP280;9663;48.996;8.334;2022-12-20T00:33:40;100796.63;;;8.78
19061;BMP280;9663;48.996;8.334;2022-12-20T00:36:07;100801.72;;;8.81
19061;BMP280;9663;48.996;8.334;2022-12-20T00:38:35;100807.69;;;8.85
19061;BMP280;9663;48.996;8.334;2022-12-20T00:41:08;100806.78;;;8.83
19061;BMP280;9663;48.996;8.334;2022-12-20T00:43:36;100810.13;;;8.79
19061;BMP280;9663;48.996;8.334;2022-12-20T00:46:02;100805.06;;;8.79
19061;BMP280;9663;48.996;8.334;2022-12-20T00:48:29;100807.59;;;8.79
19061;BMP280;9663;48.996;8.334;2022-12-20T00:51:04;100805.09;;;8.80
19061;BMP280;9663;48.996;8.334;2022-12-20T00:53:31;100793.28;;;8.81
19061;BMP280;9663;48.996;8.334;2022-12-20T00:55:58;100803.44;;;8.84
19061;BMP280;9663;48.996;8.334;2022-12-20T00:58:25;100794.16;;;8.84
19061;BMP280;9663;48.996;8.334;2022-12-20T01:00:52;100788.31;;;8.88
19061;BMP280;9663;48.996;8.334;2022-12-20T01:03:18;100799.28;;;8.89
19061;BMP280;9663;48.996;8.334;2022-12-20T01:05:51;100795.94;;;8.91
19061;BMP280;9663;48.996;8.334;2022-12-20T01:08:18;100794.25;;;8.92
19061;BMP280;9663;48.996;8.334;2022-12-20T01:10:44;100786.66;;;8.92
19061;BMP280;9663;48.996;8.334;2022-12-20T01:13:09;100800.13;;;8.91
19061;BMP280;9663;48.996;8.334;2022-12-20T01:15:35;100804.34;;;8.89
19061;BMP280;9663;48.996;8.334;2022-12-20T01:18:01;100788.28;;;8.85
19061;BMP280;9663;48.996;8.334;2022-12-20T01:20:27;100790.75;;;8.81
19061;BMP280;9663;48.996;8.334;2022-12-20T01:22:52;100790.69;;;8.78
19061;BMP280;9663;48.996;8.334;2022-12-20T01:25:18;100786.50;;;8.77
19061;BMP280;9663;48.996;8.334;2022-12-20T01:27:43;100786.47;;;8.74
19061;BMP280;9663;48.996;8.334;2022-12-20T01:30:10;100787.25;;;8.71
19061;BMP280;9663;48.996;8.334;2022-12-20T01:32:36;100781.34;;;8.71
19061;BMP280;9663;48.996;8.334;2022-12-20T01:35:02;100783.03;;;8.69
19061;BMP280;9663;48.996;8.334;2022-12-20T01:37:28;100783.00;;;8.67
19061;BMP280;9663;48.996;8.334;2022-12-20T01:39:54;100779.63;;;8.65
19061;BMP280;9663;48.996;8.334;2022-12-20T01:42:19;100775.34;;;8.63
19061;BMP280;9663;48.996;8.334;2022-12-20T01:47:11;100790.47;;;8.57
19061;BMP280;9663;48.996;8.334;2022-12-20T01:49:41;100781.13;;;8.53
19061;BMP280;9663;48.996;8.334;2022-12-20T01:52:33;100784.44;;;8.46
19061;BMP280;9663;48.996;8.334;2022-12-20T01:55:22;100784.38;;;8.43
19061;BMP280;9663;48.996;8.334;2022-12-20T02:00:23;100784.34;;;8.40
19061;BMP280;9663;48.996;8.334;2022-12-20T02:02:49;100781.84;;;8.42
19061;BMP280;9663;48.996;8.334;2022-12-20T02:05:19;100778.50;;;8.43
19061;BMP280;9663;48.996;8.334;2022-12-20T02:07:49;100769.25;;;8.45
19061;BMP280;9663;48.996;8.334;2022-12-20T02:10:17;100754.94;;;8.47
19061;BMP280;9663;48.996;8.334;2022-12-20T02:12:46;100765.09;;;8.50
19061;BMP280;9663;48.996;8.334;2022-12-20T02:15:31;100771.84;;;8.51
19061;BMP280;9663;48.996;8.334;2022-12-20T02:35:24;100713.00;;;8.62
19061;BMP280;9663;48.996;8.334;2022-12-20T02:37:53;100717.22;;;8.64
19061;BMP280;9663;48.996;8.334;2022-12-20T02:40:26;100704.56;;;8.64
19061;BMP280;9663;48.996;8.334;2022-12-20T02:42:58;100708.81;;;8.65
19061;BMP280;9663;48.996;8.334;2022-12-20T02:45:30;100716.41;;;8.65
19061;BMP280;9663;48.996;8.334;2022-12-20T02:48:07;100721.47;;;8.65
19061;BMP280;9663;48.996;8.334;2022-12-20T02:50:45;100725.63;;;8.60
19061;BMP280;9663;48.996;8.334;2022-12-20T02:53:13;100728.94;;;8.55
19061;BMP280;9663;48.996;8.334;2022-12-20T02:55:57;100737.31;;;8.51
19061;BMP280;9663;48.996;8.334;2022-12-20T02:58:50;100726.28;;;8.46
19061;BMP280;9663;48.996;8.334;2022-12-20T03:01:27;100721.22;;;8.45
19061;BMP280;9663;48.996;8.334;2022-12-20T03:03:56;100719.53;;;8.44
19061;BMP280;9663;48.996;8.334;2022-12-20T03:06:22;100726.25;;;8.43
19061;BMP280;9663;48.996;8.334;2022-12-20T03:08:47;100726.22;;;8.42
19061;BMP280;9663;48.996;8.334;2022-12-20T03:11:13;100714.44;;;8.41
19061;BMP280;9663;48.996;8.334;2022-12-20T03:13:39;100718.63;;;8.40
19061;BMP280;9663;48.996;8.334;2022-12-20T03:16:05;100722.00;;;8.39
19061;BMP280;9663;48.996;8.334;2022-12-20T03:18:31;100726.19;;;8.36
19061;BMP280;9663;48.996;8.334;2022-12-20T03:20:57;100727.81;;;8.32
19061;BMP280;9663;48.996;8.334;2022-12-20T03:23:23;100724.38;;;8.27
19061;BMP280;9663;48.996;8.334;2022-12-20T03:25:48;100730.25;;;8.26
19061;BMP280;9663;48.996;8.334;2022-12-20T03:28:14;100715.94;;;8.24
19061;BMP280;9663;48.996;8.334;2022-12-20T03:30:40;100720.97;;;8.25
19061;BMP280;9663;48.996;8.334;2022-12-20T03:33:05;100703.28;;;8.25
19061;BMP280;9663;48.996;8.334;2022-12-20T03:35:31;100709.22;;;8.27
19061;BMP280;9663;48.996;8.334;2022-12-20T03:37:57;100709.25;;;8.30
19061;BMP280;9663;48.996;8.334;2022-12-20T03:40:22;100700.03;;;8.32
19061;BMP280;9663;48.996;8.334;2022-12-20T03:42:48;100688.25;;;8.34
19061;BMP280;9663;48.996;8.334;2022-12-20T03:45:14;100684.03;;;8.35
19061;BMP280;9663;48.996;8.334;2022-12-20T03:47:40;100694.19;;;8.39
19061;BMP280;9663;48.996;8.334;2022-12-20T03:50:06;100706.03;;;8.43
19061;BMP280;9663;48.996;8.334;2022-12-20T03:52:33;100704.38;;;8.47
19061;BMP280;9663;48.996;8.334;2022-12-20T03:54:59;100701.94;;;8.52
19061;BMP280;9663;48.996;8.334;2022-12-20T03:57:25;100695.22;;;8.56
19061;BMP280;9663;48.996;8.334;2022-12-20T03:59:50;100686.00;;;8.61
19061;BMP280;9663;48.996;8.334;2022-12-20T04:02:16;100696.16;;;8.64
19061;BMP280;9663;48.996;8.334;2022-12-20T04:04:42;100687.72;;;8.66
19061;BMP280;9663;48.996;8.334;2022-12-20T04:07:07;100681.88;;;8.69
19061;BMP280;9663;48.996;8.334;2022-12-20T04:09:33;100686.09;;;8.70
19061;BMP280;9663;48.996;8.334;2022-12-20T04:11:59;100683.59;;;8.73
19061;BMP280;9663;48.996;8.334;2022-12-20T04:14:25;100680.22;;;8.74
19061;BMP280;9663;48.996;8.334;2022-12-20T04:16:51;100675.16;;;8.72
19061;BMP280;9663;48.996;8.334;2022-12-20T04:19:16;100670.09;;;8.72
19061;BMP280;9663;48.996;8.334;2022-12-20T04:21:42;100671.78;;;8.70
19061;BMP280;9663;48.996;8.334;2022-12-20T04:24:08;100666.69;;;8.67
19061;BMP280;9663;48.996;8.334;2022-12-20T04:26:34;100654.00;;;8.66
19061;BMP280;9663;48.996;8.334;2022-12-20T04:28:59;100656.56;;;8.67
19061;BMP280;9663;48.996;8.334;2022-12-20T04:31:25;100657.41;;;8.69
19061;BMP280;9663;48.996;8.334;2022-12-20T04:33:51;100661.66;;;8.72
19061;BMP280;9663;48.996;8.334;2022-12-20T04:36:17;100652.41;;;8.72
19061;BMP280;9663;48.996;8.334;2022-12-20T04:38:43;100661.69;;;8.73
19061;BMP280;9663;48.996;8.334;2022-12-20T04:41:08;100657.50;;;8.75
19061;BMP280;9663;48.996;8.334;2022-12-20T04:43:34;100652.44;;;8.75
19061;BMP280;9663;48.996;8.334;2022-12-20T04:45:59;100647.38;;;8.75
19061;BMP280;9663;48.996;8.334;2022-12-20T04:48:26;100649.91;;;8.75
19061;BMP280;9663;48.996;8.334;2022-12-20T04:50:55;100642.34;;;8.77
19061;BMP280;9663;48.996;8.334;2022-12-20T04:53:22;100646.53;;;8.78
19061;BMP280;9663;48.996;8.334;2022-12-20T04:56:08;100643.16;;;8.77
19061;BMP280;9663;48.996;8.334;2022-12-20T04:58:33;100646.56;;;8.79
19061;BMP280;9663;48.996;8.334;2022-12-20T05:00:59;100649.94;;;8.80
19061;BMP280;9663;48.996;8.334;2022-12-20T05:03:26;100649.13;;;8.82
19061;BMP280;9663;48.996;8.334;2022-12-20T05:05:52;100649.94;;;8.80
19061;BMP280;9663;48.996;8.334;2022-12-20T05:08:18;100656.66;;;8.79
19061;BMP280;9663;48.996;8.334;2022-12-20T05:10:44;100657.53;;;8.78
19061;BMP280;9663;48.996;8.334;2022-12-20T05:13:10;100645.69;;;8.76
19061;BMP280;9663;48.996;8.334;2022-12-20T05:15:36;100637.25;;;8.75
19061;BMP280;9663;48.996;8.334;2022-12-20T05:18:03;100634.75;;;8.77
19061;BMP280;9663;48.996;8.334;2022-12-20T05:20:30;100634.75;;;8.77
19061;BMP280;9663;48.996;8.334;2022-12-20T05:22:56;100641.47;;;8.78
19061;BMP280;9663;48.996;8.334;2022-12-20T05:25:45;100639.84;;;8.80
19061;BMP280;9663;48.996;8.334;2022-12-20T05:28:35;100647.41;;;8.80
19061;BMP280;9663;48.996;8.334;2022-12-20T05:31:01;100655.03;;;8.81
19061;BMP280;9663;48.996;8.334;2022-12-20T05:33:28;100652.47;;;8.83
19061;BMP280;9663;48.996;8.334;2022-12-20T05:35:54;100651.66;;;8.84
19061;BMP280;9663;48.996;8.334;2022-12-20T05:38:21;100652.50;;;8.84
19061;BMP280;9663;48.996;8.334;2022-12-20T05:40:48;100647.44;;;8.84
19061;BMP280;9663;48.996;8.334;2022-12-20T05:43:15;100650.84;;;8.86
19061;BMP280;9663;48.996;8.334;2022-12-20T05:45:50;100659.28;;;8.87
19061;BMP280;9663;48.996;8.334;2022-12-20T05:48:18;100656.75;;;8.87
19061;BMP280;9663;48.996;8.334;2022-12-20T05:50:45;100650.84;;;8.88
19061;BMP280;9663;48.996;8.334;2022-12-20T05:53:13;100646.66;;;8.90
19061;BMP280;9663;48.996;8.334;2022-12-20T05:55:47;100641.59;;;8.88
19061;BMP280;9663;48.996;8.334;2022-12-20T05:58:13;100644.13;;;8.90
19061;BMP280;9663;48.996;8.334;2022-12-20T06:00:41;100649.19;;;8.93
19061;BMP280;9663;48.996;8.334;2022-12-20T06:03:09;100646.69;;;8.94
19061;BMP280;9663;48.996;8.334;2022-12-20T06:05:37;100651.75;;;8.95
19061;BMP280;9663;48.996;8.334;2022-12-20T06:08:05;100649.25;;;8.97
19061;BMP280;9663;48.996;8.334;2022-12-20T06:10:33;100655.16;;;9.00
19061;BMP280;9663;48.996;8.334;2022-12-20T06:13:00;100647.59;;;9.02
19061;BMP280;9663;48.996;8.334;2022-12-20T06:15:27;100634.94;;;9.02
19061;BMP280;9663;48.996;8.334;2022-12-20T06:17:53;100633.25;;;9.04
19061;BMP280;9663;48.996;8.334;2022-12-20T06:20:19;100630.75;;;9.05
19061;BMP280;9663;48.996;8.334;2022-12-20T06:22:44;100622.34;;;9.08
19061;BMP280;9663;48.996;8.334;2022-12-20T06:25:10;100619.84;;;9.09
19061;BMP280;9663;48.996;8.334;2022-12-20T06:27:37;100613.91;;;9.10
19061;BMP280;9663;48.996;8.334;2022-12-20T06:30:04;100620.72;;;9.14
19061;BMP280;9663;48.996;8.334;2022-12-20T06:32:30;100624.91;;;9.15
19061;BMP280;9663;48.996;8.334;2022-12-20T06:34:56;100614.81;;;9.18
19061;BMP280;9663;48.996;8.334;2022-12-20T06:37:21;100620.72;;;9.20
19061;BMP280;9663;48.996;8.334;2022-12-20T06:39:47;100612.31;;;9.21
19061;BMP280;9663;48.996;8.334;2022-12-20T06:42:13;100608.09;;;9.22
19061;BMP280;9663;48.996;8.334;2022-12-20T06:44:38;100608.09;;;9.22
19061;BMP280;9663;48.996;8.334;2022-12-20T06:47:04;100600.50;;;9.23
19061;BMP280;9663;48.996;8.334;2022-12-20T06:49:30;100597.97;;;9.23
19061;BMP280;9663;48.996;8.334;2022-12-20T06:51:55;100598.84;;;9.27
19061;BMP280;9663;48.996;8.334;2022-12-20T06:54:21;100602.25;;;9.29
19061;BMP280;9663;48.996;8.334;2022-12-20T06:56:47;100604.78;;;9.32
19061;BMP280;9663;48.996;8.334;2022-12-20T06:59:12;100603.97;;;9.33
19061;BMP280;9663;48.996;8.334;2022-12-20T07:01:38;100600.59;;;9.35
19061;BMP280;9663;48.996;8.334;2022-12-20T07:04:04;100602.31;;;9.39
19061;BMP280;9663;48.996;8.334;2022-12-20T07:06:30;100587.13;;;9.40
19061;BMP280;9663;48.996;8.334;2022-12-20T07:08:55;100593.91;;;9.44
19061;BMP280;9663;48.996;8.334;2022-12-20T07:11:21;100591.38;;;9.47
19061;BMP280;9663;48.996;8.334;2022-12-20T07:13:47;100587.16;;;9.49
19061;BMP280;9663;48.996;8.334;2022-12-20T07:16:14;100587.16;;;9.49
19061;BMP280;9663;48.996;8.334;2022-12-20T07:18:40;100588.03;;;9.48
19061;BMP280;9663;48.996;8.334;2022-12-20T07:21:06;100590.53;;;9.44
19061;BMP280;9663;48.996;8.334;2022-12-20T07:23:32;100585.38;;;9.35
19061;BMP280;9663;48.996;8.334;2022-12-20T07:26:00;100598.03;;;9.28
19061;BMP280;9663;48.996;8.334;2022-12-20T07:28:27;100595.44;;;9.20
19061;BMP280;9663;48.996;8.334;2022-12-20T07:30:53;100593.75;;;9.18
19061;BMP280;9663;48.996;8.334;2022-12-20T07:33:19;100590.34;;;9.19
19061;BMP280;9663;48.996;8.334;2022-12-20T07:35:45;100593.75;;;9.21
19061;BMP280;9663;48.996;8.334;2022-12-20T07:38:12;100596.28;;;9.19
19061;BMP280;9663;48.996;8.334;2022-12-20T07:40:42;100605.53;;;9.20
19061;BMP280;9663;48.996;8.334;2022-12-20T07:43:09;100592.06;;;9.21
19061;BMP280;9663;48.996;8.334;2022-12-20T07:45:35;100580.25;;;9.23
19061;BMP280;9663;48.996;8.334;2022-12-20T07:48:03;100588.75;;;9.30
19061;BMP280;9663;48.996;8.334;2022-12-20T07:50:32;100582.84;;;9.35
19061;BMP280;9663;48.996;8.334;2022-12-20T07:52:58;100582.06;;;9.39
19061;BMP280;9663;48.996;8.334;2022-12-20T07:55:25;100566.03;;;9.44
19061;BMP280;9663;48.996;8.334;2022-12-20T07:57:57;100565.22;;;9.51
19061;BMP280;9663;48.996;8.334;2022-12-20T08:00:24;100570.34;;;9.57
19061;BMP280;9663;48.996;8.334;2022-12-20T08:03:05;100566.13;;;9.61
19061;BMP280;9663;48.996;8.334;2022-12-20T08:05:34;100566.97;;;9.66
19061;BMP280;9663;48.996;8.334;2022-12-20T08:08:03;100562.78;;;9.71
19061;BMP280;9663;48.996;8.334;2022-12-20T08:10:30;100563.66;;;9.77
19061;BMP280;9663;48.996;8.334;2022-12-20T08:12:57;100566.22;;;9.80
19061;BMP280;9663;48.996;8.334;2022-12-20T08:15:24;100567.06;;;9.85
19061;BMP280;9663;48.996;8.334;2022-12-20T08:17:50;100572.16;;;9.91
19061;BMP280;9663;48.996;8.334;2022-12-20T08:20:16;100562.91;;;9.94
19061;BMP280;9663;48.996;8.334;2022-12-20T08:22:42;100560.38;;;9.99
19061;BMP280;9663;48.996;8.334;2022-12-20T08:25:08;100551.97;;;10.03
19061;BMP280;9663;48.996;8.334;2022-12-20T08:27:34;100553.66;;;10.07
19061;BMP280;9663;48.996;8.334;2022-12-20T08:29:59;100548.59;;;10.14
19061;BMP280;9663;48.996;8.334;2022-12-20T08:32:25;100548.59;;;10.19
19061;BMP280;9663;48.996;8.334;2022-12-20T08:34:52;100547.78;;;10.21
19061;BMP280;9663;48.996;8.334;2022-12-20T08:37:18;100546.09;;;10.26
19061;BMP280;9663;48.996;8.334;2022-12-20T08:39:44;100530.03;;;10.30
19061;BMP280;9663;48.996;8.334;2022-12-20T08:42:10;100526.66;;;10.34
19061;BMP280;9663;48.996;8.334;2022-12-20T08:44:36;100522.44;;;10.36
19061;BMP280;9663;48.996;8.334;2022-12-20T08:47:02;100531.72;;;10.40
19061;BMP280;9663;48.996;8.334;2022-12-20T08:49:28;100540.19;;;10.39
19061;BMP280;9663;48.996;8.334;2022-12-20T08:51:53;100535.09;;;10.34
19061;BMP280;9663;48.996;8.334;2022-12-20T08:54:19;100529.19;;;10.34
19061;BMP280;9663;48.996;8.334;2022-12-20T08:56:45;100519.06;;;10.35
19061;BMP280;9663;48.996;8.334;2022-12-20T08:59:10;100535.13;;;10.39
19061;BMP280;9663;48.996;8.334;2022-12-20T09:01:36;100535.13;;;10.43
19061;BMP280;9663;48.996;8.334;2022-12-20T09:04:03;100525.81;;;10.47
19061;BMP280;9663;48.996;8.334;2022-12-20T09:06:28;100529.19;;;10.55
19061;BMP280;9663;48.996;8.334;2022-12-20T09:08:54;100520.75;;;10.62
19061;BMP280;9663;48.996;8.334;2022-12-20T09:11:23;100526.69;;;10.69
19061;BMP280;9663;48.996;8.334;2022-12-20T09:13:54;100517.34;;;10.77
19061;BMP280;9663;48.996;8.334;2022-12-20T09:16:23;100525.78;;;10.82
19061;BMP280;9663;48.996;8.334;2022-12-20T09:18:56;100525.78;;;10.85
19061;BMP280;9663;48.996;8.334;2022-12-20T09:21:22;100536.78;;;10.87
19061;BMP280;9663;48.996;8.334;2022-12-20T09:23:53;100533.41;;;10.88
19061;BMP280;9663;48.996;8.334;2022-12-20T09:26:21;100537.63;;;10.92
19061;BMP280;9663;48.996;8.334;2022-12-20T09:28:48;100534.25;;;10.99
19061;BMP280;9663;48.996;8.334;2022-12-20T09:31:21;100533.38;;;11.09
19061;BMP280;9663;48.996;8.334;2022-12-20T09:33:47;100529.09;;;11.18
19061;BMP280;9663;48.996;8.334;2022-12-20T09:36:19;100536.72;;;11.26
19061;BMP280;9663;48.996;8.334;2022-12-20T09:38:46;100528.22;;;11.30
19061;BMP280;9663;48.996;8.334;2022-12-20T09:41:36;100540.09;;;11.34
19061;BMP280;9663;48.996;8.334;2022-12-20T09:44:33;100527.41;;;11.34
19061;BMP280;9663;48.996;8.334;2022-12-20T09:47:12;100543.47;;;11.40
19061;BMP280;9663;48.996;8.334;2022-12-20T09:49:43;100538.34;;;11.43
19061;BMP280;9663;48.996;8.334;2022-12-20T09:52:48;100534.13;;;11.41
19061;BMP280;9663;48.996;8.334;2022-12-20T09:55:34;100530.72;;;11.43
19061;BMP280;9663;48.996;8.334;2022-12-20T10:01:16;100522.28;;;11.49
19061;BMP280;9663;48.996;8.334;2022-12-20T10:03:42;100514.66;;;11.53
19061;BMP280;9663;48.996;8.334;2022-12-20T10:06:41;100511.25;;;11.57
19061;BMP280;9663;48.996;8.334;2022-12-20T10:12:11;100505.25;;;11.70
19061;BMP280;9663;48.996;8.334;2022-12-20T10:20:38;100515.34;;;11.89
19061;BMP280;9663;48.996;8.334;2022-12-20T10:23:26;100510.19;;;11.98
19061;BMP280;9663;48.996;8.334;2022-12-20T10:25:56;100504.19;;;12.06
19061;BMP280;9663;48.996;8.334;2022-12-20T10:28:32;100503.28;;;12.15
19061;BMP280;9663;48.996;8.334;2022-12-20T10:31:02;100503.22;;;12.25
19061;BMP280;9663;48.996;8.334;2022-12-20T10:33:30;100495.53;;;12.34
19061;BMP280;9663;48.996;8.334;2022-12-20T10:38:50;100475.00;;;12.56
19061;BMP280;9663;48.996;8.334;2022-12-20T10:41:21;100473.16;;;12.72
19061;BMP280;9663;48.996;8.334;2022-12-20T10:46:35;100467.91;;;12.88
19061;BMP280;9663;48.996;8.334;2022-12-20T10:49:34;100456.91;;;12.86
19061;BMP280;9663;48.996;8.334;2022-12-20T10:54:36;100447.59;;;12.82
19061;BMP280;9663;48.996;8.334;2022-12-20T10:59:43;100452.75;;;12.75
19061;BMP280;9663;48.996;8.334;2022-12-20T11:05:21;100446.09;;;12.63
19061;BMP280;9663;48.996;8.334;2022-12-20T11:07:56;100440.97;;;12.65
19061;BMP280;9663;48.996;8.334;2022-12-20T11:10:28;100433.34;;;12.66
19061;BMP280;9663;48.996;8.334;2022-12-20T11:12:59;100419.72;;;12.70
19061;BMP280;9663;48.996;8.334;2022-12-20T11:15:35;100411.22;;;12.73
19061;BMP280;9663;48.996;8.334;2022-12-20T11:21:57;100386.63;;;12.72
19061;BMP280;9663;48.996;8.334;2022-12-20T11:27:58;100400.97;;;12.81
19061;BMP280;9663;48.996;8.334;2022-12-20T11:30:53;100402.59;;;12.87
19061;BMP280;9663;48.996;8.334;2022-12-20T11:34:03;100409.28;;;12.95
19061;BMP280;9663;48.996;8.334;2022-12-20T11:39:47;100404.16;;;12.97
19061;BMP280;9663;48.996;8.334;2022-12-20T11:45:14;100389.75;;;12.97
19061;BMP280;9663;48.996;8.334;2022-12-20T11:48:20;100383.75;;;13.00
19061;BMP280;9663;48.996;8.334;2022-12-20T11:51:11;100384.66;;;12.99
19061;BMP280;9663;48.996;8.334;2022-12-20T11:53:56;100384.66;;;12.99
19061;BMP280;9663;48.996;8.334;2022-12-20T11:56:36;100386.31;;;13.00
19061;BMP280;9663;48.996;8.334;2022-12-20T12:02:13;100382.97;;;12.95
19061;BMP280;9663;48.996;8.334;2022-12-20T12:04:53;100372.78;;;12.95
19061;BMP280;9663;48.996;8.334;2022-12-20T12:07:28;100369.44;;;12.93
19061;BMP280;9663;48.996;8.334;2022-12-20T12:10:24;100365.22;;;12.89
19061;BMP280;9663;48.996;8.334;2022-12-20T12:13:17;100374.56;;;12.90
19061;BMP280;9663;48.996;8.334;2022-12-20T12:16:23;100381.38;;;12.88
19061;BMP280;9663;48.996;8.334;2022-12-20T12:18:50;100371.16;;;12.89
19061;BMP280;9663;48.996;8.334;2022-12-20T12:21:41;100362.66;;;12.89
19061;BMP280;9663;48.996;8.334;2022-12-20T12:24:33;100367.75;;;12.90
19061;BMP280;9663;48.996;8.334;2022-12-20T12:26:59;100354.13;;;12.96
19061;BMP280;9663;48.996;8.334;2022-12-20T12:29:28;100339.63;;;13.02
19061;BMP280;9663;48.996;8.334;2022-12-20T12:32:16;100318.34;;;13.06
19061;BMP280;9663;48.996;8.334;2022-12-20T12:38:14;100303.00;;;13.11
19061;BMP280;9663;48.996;8.334;2022-12-20T12:41:08;100308.88;;;13.16
19061;BMP280;9663;48.996;8.334;2022-12-20T12:43:49;100311.31;;;13.22
19061;BMP280;9663;48.996;8.334;2022-12-20T12:46:28;100310.41;;;13.27
19061;BMP280;9663;48.996;8.334;2022-12-20T12:49:07;100302.69;;;13.31
19061;BMP280;9663;48.996;8.334;2022-12-20T12:51:39;100302.66;;;13.33
19061;BMP280;9663;48.996;8.334;2022-12-20T12:56:42;100290.69;;;13.39
19061;BMP280;9663;48.996;8.334;2022-12-20T13:17:58;100274.28;;;14.08
19061;BMP280;9663;48.996;8.334;2022-12-20T13:20:35;100258.03;;;14.11
19061;BMP280;9663;48.996;8.334;2022-12-20T13:25:38;100269.97;;;14.09
19061;BMP280;9663;48.996;8.334;2022-12-20T13:33:44;100243.25;;;13.82
19061;BMP280;9663;48.996;8.334;2022-12-20T13:38:58;100246.03;;;13.68
19061;BMP280;9663;48.996;8.334;2022-12-20T13:41:46;100259.72;;;13.65
19061;BMP280;9663;48.996;8.334;2022-12-20T13:47:01;100242.88;;;13.56
19061;BMP280;9663;48.996;8.334;2022-12-20T13:49:36;100247.06;;;13.57
19061;BMP280;9663;48.996;8.334;2022-12-20T13:52:29;100242.91;;;13.53
19061;BMP280;9663;48.996;8.334;2022-12-20T13:55:23;100241.25;;;13.51
19061;BMP280;9663;48.996;8.334;2022-12-20T13:57:51;100232.72;;;13.53
19061;BMP280;9663;48.996;8.334;2022-12-20T14:00:25;100224.97;;;13.58
19061;BMP280;9663;48.996;8.334;2022-12-20T14:02:52;100229.19;;;13.60
19061;BMP280;9663;48.996;8.334;2022-12-20T14:05:22;100228.34;;;13.61
19061;BMP280;9663;48.996;8.334;2022-12-20T14:08:07;100243.63;;;13.61
19061;BMP280;9663;48.996;8.334;2022-12-20T14:10:35;100250.41;;;13.62
19061;BMP280;9663;48.996;8.334;2022-12-20T14:13:01;100248.72;;;13.61
19061;BMP280;9663;48.996;8.334;2022-12-20T14:15:34;100254.66;;;13.62
19061;BMP280;9663;48.996;8.334;2022-12-20T14:18:22;100248.78;;;13.58
19061;BMP280;9663;48.996;8.334;2022-12-20T14:20:54;100249.63;;;13.57
19061;BMP280;9663;48.996;8.334;2022-12-20T14:23:30;100242.88;;;13.55
19061;BMP280;9663;48.996;8.334;2022-12-20T14:26:00;100234.38;;;13.54
19061;BMP280;9663;48.996;8.334;2022-12-20T14:28:56;100232.75;;;13.52
19061;BMP280;9663;48.996;8.334;2022-12-20T14:34:15;100234.53;;;13.47
19061;BMP280;9663;48.996;8.334;2022-12-20T14:36:48;100240.44;;;13.47
19061;BMP280;9663;48.996;8.334;2022-12-20T14:39:33;100234.56;;;13.44
19061;BMP280;9663;48.996;8.334;2022-12-20T14:42:04;100226.13;;;13.42
19061;BMP280;9663;48.996;8.334;2022-12-20T14:44:37;100232.97;;;13.38
19061;BMP280;9663;48.996;8.334;2022-12-20T14:47:24;100217.75;;;13.34
19061;BMP280;9663;48.996;8.334;2022-12-20T14:50:00;100214.41;;;13.32
19061;BMP280;9663;48.996;8.334;2022-12-20T14:52:34;100215.25;;;13.29
19061;BMP280;9663;48.996;8.334;2022-12-20T14:55:18;100202.63;;;13.25
19061;BMP280;9663;48.996;8.334;2022-12-20T14:57:55;100206.84;;;13.24
19061;BMP280;9663;48.996;8.334;2022-12-20T15:11:15;100232.56;;;13.10
19061;BMP280;9663;48.996;8.334;2022-12-20T15:13:46;100230.94;;;13.06
19061;BMP280;9663;48.996;8.334;2022-12-20T15:16:17;100236.03;;;13.04
19061;BMP280;9663;48.996;8.334;2022-12-20T15:18:48;100227.59;;;13.01
19061;BMP280;9663;48.996;8.334;2022-12-20T15:21:21;100229.28;;;13.00
19061;BMP280;9663;48.996;8.334;2022-12-20T15:23:52;100231.03;;;12.97
19061;BMP280;9663;48.996;8.334;2022-12-20T15:26:24;100236.16;;;12.95
19061;BMP280;9663;48.996;8.334;2022-12-20T15:28:50;100236.19;;;12.94
19061;BMP280;9663;48.996;8.334;2022-12-20T15:31:20;100230.25;;;12.93
19061;BMP280;9663;48.996;8.334;2022-12-20T15:33:46;100218.44;;;12.89
19061;BMP280;9663;48.996;8.334;2022-12-20T15:36:24;100212.53;;;12.87
19061;BMP280;9663;48.996;8.334;2022-12-20T15:38:52;100220.22;;;12.84
19061;BMP280;9663;48.996;8.334;2022-12-20T15:41:31;100216.88;;;12.81
19061;BMP280;9663;48.996;8.334;2022-12-20T15:44:15;100225.34;;;12.78
19061;BMP280;9663;48.996;8.334;2022-12-20T15:46:41;100224.53;;;12.77
19061;BMP280;9663;48.996;8.334;2022-12-20T15:49:20;100221.16;;;12.76
19061;BMP280;9663;48.996;8.334;2022-12-20T15:51:49;100220.31;;;12.74
19061;BMP280;9663;48.996;8.334;2022-12-20T15:54:34;100224.53;;;12.75
19061;BMP280;9663;48.996;8.334;2022-12-20T15:57:04;100215.28;;;12.70
19061;BMP280;9663;48.996;8.334;2022-12-20T15:59:32;100212.78;;;12.68
19061;BMP280;9663;48.996;8.334;2022-12-20T16:01:58;100216.19;;;12.66
19061;BMP280;9663;48.996;8.334;2022-12-20T16:04:25;100214.50;;;12.66
19061;BMP280;9663;48.996;8.334;2022-12-20T16:06:51;100202.59;;;12.67
19061;BMP280;9663;48.996;8.334;2022-12-20T16:09:20;100207.69;;;12.68
19061;BMP280;9663;48.996;8.334;2022-12-20T16:11:47;100215.31;;;12.68
19061;BMP280;9663;48.996;8.334;2022-12-20T16:14:19;100207.69;;;12.67
19061;BMP280;9663;48.996;8.334;2022-12-20T16:16:46;100203.47;;;12.64
19061;BMP280;9663;48.996;8.334;2022-12-20T16:19:14;100213.72;;;12.60
19061;BMP280;9663;48.996;8.334;2022-12-20T16:21:50;100208.72;;;12.54
19061;BMP280;9663;48.996;8.334;2022-12-20T16:24:18;100205.41;;;12.47
19061;BMP280;9663;48.996;8.334;2022-12-20T16:26:46;100214.78;;;12.44
19061;BMP280;9663;48.996;8.334;2022-12-20T16:29:12;100213.13;;;12.41
19061;BMP280;9663;48.996;8.334;2022-12-20T16:31:40;100211.44;;;12.40
19061;BMP280;9663;48.996;8.334;2022-12-20T16:34:15;100203.81;;;12.40